CMB830 Details

Departure: Keflavík International Airport (BIKF)
Arrival: Joint Base McGuire Dix Lakehurst (KWRI)
Route: RALOV1D RALOV RAKIS 6235N N6040 5944N 5650N YAY J580 YQY YQI J585 ACK J62 RIFLE J174 EMJAY HEADI
Notes: USTRANSCOM CONTRACT FLIGHT


Current Weather Information
BIKF 250330Z 11007KT CAVOK 05/05 Q1018
KWRI 250256Z AUTO 06007KT 10SM FEW190 17/10 A3009 RMK AO2 SLP188 T01730104 50020 TSNO $